Time;durP1;ratioP1;P1;durP2;ratioP2;P2;SDS_P1;SDS_P2;PMS_P1;PMS_P2;Temp;Humidity;BMP_temperature;BMP_pressure;BME280_temperature;BME280_humidity;BME280_pressure;Samples;Min_cycle;Max_cycle;Signal;HPM_P1;HPM_P2
2022/11/19 00:01:42;;;;;;;25.42;12.13;;;;;;;3.46;97.16;100954.53;6312831;22;20062;-92
2022/11/19 00:04:09;;;;;;;20.02;11.90;;;;;;;3.46;97.41;100957.16;6312977;22;20019;-93
2022/11/19 00:06:35;;;;;;;23.55;11.82;;;;;;;3.42;97.31;100964.31;6285958;22;20034;-94
2022/11/19 00:09:04;;;;;;;19.25;11.77;;;;;;;3.41;97.50;100968.06;6309702;22;20095;-94
2022/11/19 00:14:15;;;;;;;20.65;12.65;;;;;;;3.43;97.25;100978.97;6284167;22;20012;-94
2022/11/19 00:16:42;;;;;;;23.83;12.40;;;;;;;3.42;97.11;100976.72;6309768;22;20054;-92
2022/11/19 00:19:10;;;;;;;18.35;11.40;;;;;;;3.37;97.09;100972.59;6311267;22;20142;-92
2022/11/19 00:21:37;;;;;;;19.80;11.52;;;;;;;3.36;96.90;100976.38;6311461;22;20091;-92
2022/11/19 00:24:04;;;;;;;18.83;11.27;;;;;;;3.37;97.13;100983.13;6311108;22;20008;-92
2022/11/19 00:26:30;;;;;;;17.05;11.38;;;;;;;3.35;96.98;100982.75;6310717;22;21163;-91
2022/11/19 00:28:57;;;;;;;17.27;11.07;;;;;;;3.33;96.95;100979.78;6311243;22;20040;-92
2022/11/19 00:31:23;;;;;;;17.63;10.98;;;;;;;3.32;97.09;100983.53;6310812;22;20019;-92
2022/11/19 00:33:50;;;;;;;19.67;11.18;;;;;;;3.30;96.94;100981.28;6286266;22;20016;-92
2022/11/19 00:36:17;;;;;;;20.40;11.35;;;;;;;3.30;96.87;100981.28;6311648;22;20016;-92
2022/11/19 00:38:43;;;;;;;16.23;10.85;;;;;;;3.29;96.85;100987.69;6284769;22;20016;-93
2022/11/19 00:41:10;;;;;;;18.42;11.75;;;;;;;3.28;97.38;100988.06;6285785;22;20012;-92
2022/11/19 00:43:45;;;;;;;19.52;11.48;;;;;;;3.27;96.53;100986.56;6311340;22;20051;-91
2022/11/19 00:46:17;;;;;;;18.73;10.90;;;;;;;3.26;97.03;100987.69;6284584;22;20016;-93
2022/11/19 00:48:45;;;;;;;16.45;11.55;;;;;;;3.27;96.96;100991.81;6312491;22;20012;-93
2022/11/19 00:51:12;;;;;;;17.80;10.73;;;;;;;3.26;96.90;100991.06;6311923;22;20048;-92
2022/11/19 00:53:39;;;;;;;18.90;10.85;;;;;;;3.23;96.66;100991.84;6311042;22;20077;-92
2022/11/19 00:56:08;;;;;;;20.05;11.00;;;;;;;3.21;97.06;100991.47;6312215;22;20073;-92
2022/11/19 00:58:35;;;;;;;16.33;11.23;;;;;;;3.19;96.54;100993.75;6311618;22;20004;-92
2022/11/19 01:01:02;;;;;;;22.90;11.55;;;;;;;3.21;97.07;101006.50;6284075;22;20090;-93
2022/11/19 01:03:28;;;;;;;18.17;11.00;;;;;;;3.22;96.75;101006.13;6284265;22;20020;-92
2022/11/19 01:05:55;;;;;;;18.27;11.43;;;;;;;3.21;96.63;101004.63;6311016;22;20035;-92
2022/11/19 01:08:22;;;;;;;15.95;10.80;;;;;;;3.20;96.68;101013.66;6309445;22;20070;-91
2022/11/19 01:10:48;;;;;;;18.73;11.82;;;;;;;3.18;96.56;101010.66;6310218;22;20034;-92
2022/11/19 01:13:33;;;;;;;17.85;11.25;;;;;;;3.17;96.76;101014.44;6313337;22;20032;-92
2022/11/19 01:16:20;;;;;;;16.45;11.43;;;;;;;3.16;96.47;101020.81;6312953;22;20464;-91
2022/11/19 01:18:48;;;;;;;19.88;11.73;;;;;;;3.14;96.63;101019.69;6313584;22;20268;-93
2022/11/19 01:21:16;;;;;;;20.15;12.60;;;;;;;3.16;96.63;101030.59;6312840;22;20044;-91
2022/11/19 01:23:44;;;;;;;19.30;10.43;;;;;;;3.18;96.35;101030.97;6311939;22;20436;-92
2022/11/19 01:26:11;;;;;;;23.83;13.00;;;;;;;3.15;96.39;101034.34;6312886;22;20020;-92
2022/11/19 01:28:38;;;;;;;22.00;12.73;;;;;;;3.12;96.34;101041.13;6313414;22;20499;-94
2022/11/19 01:31:20;;;;;;;22.13;11.93;;;;;;;3.12;96.19;101035.88;6313351;22;20023;-93
2022/11/19 01:33:47;;;;;;;21.73;13.10;;;;;;;3.05;95.88;101035.88;6313672;22;20047;-93
2022/11/19 01:36:17;;;;;;;23.85;12.85;;;;;;;3.03;95.74;101032.88;6314242;22;20022;-93
2022/11/19 01:38:49;;;;;;;24.70;13.15;;;;;;;3.03;95.75;101042.66;6313821;22;20023;-93
2022/11/19 01:41:21;;;;;;;23.58;12.68;;;;;;;2.98;95.56;101044.53;6313499;22;20648;-94
2022/11/19 01:43:52;;;;;;;22.10;13.15;;;;;;;2.96;95.32;101043.41;6313240;22;20022;-94
2022/11/19 01:46:24;;;;;;;17.95;11.68;;;;;;;2.94;95.25;101048.31;6313608;22;20090;-93
2022/11/19 01:49:00;;;;;;;18.10;12.23;;;;;;;2.93;94.95;101044.91;6317228;22;20042;-93
2022/11/19 01:51:37;;;;;;;19.80;13.07;;;;;;;2.92;94.93;101045.31;6317006;22;20019;-93
2022/11/19 01:54:09;;;;;;;22.27;12.25;;;;;;;2.90;94.74;101039.66;6313022;22;20016;-91
2022/11/19 01:56:36;;;;;;;;;;;;;;;2.90;95.18;101042.28;6313183;22;20024;-94
2022/11/19 01:59:06;;;;;;;17.55;11.15;;;;;;;2.89;94.62;101040.78;6286697;22;20389;-94
2022/11/19 02:01:33;;;;;;;19.63;12.70;;;;;;;2.89;94.88;101052.06;6313027;22;20016;-94
2022/11/19 02:04:01;;;;;;;22.83;12.27;;;;;;;2.88;94.72;101055.81;6259548;22;20464;-91
2022/11/19 02:06:29;;;;;;;20.23;12.63;;;;;;;2.87;94.54;101059.59;6313050;22;20050;-94
2022/11/19 02:08:56;;;;;;;18.65;12.70;;;;;;;2.86;94.38;101058.09;6311748;22;20313;-90
2022/11/19 02:11:22;;;;;;;22.25;12.75;;;;;;;2.87;94.42;101058.84;6313621;22;20019;-94
2022/11/19 02:13:54;;;;;;;18.92;12.10;;;;;;;2.88;94.29;101076.09;6312675;22;20090;-93
2022/11/19 02:16:42;;;;;;;19.92;12.98;;;;;;;2.83;94.18;101076.50;6313305;22;20020;-93
2022/11/19 02:19:33;;;;;;;21.13;13.75;;;;;;;2.80;94.20;101085.16;6312853;22;20020;-95
2022/11/19 02:22:45;;;;;;;16.27;11.20;;;;;;;2.76;93.82;101085.16;6313468;22;20441;-91
2022/11/19 02:25:31;;;;;;;23.50;13.52;;;;;;;2.71;93.55;101087.41;6157692;23;20478;-92
2022/11/19 02:28:45;;;;;;;18.67;12.63;;;;;;;2.63;93.47;101082.16;6157647;23;20022;-93
2022/11/19 02:31:34;;;;;;;21.83;13.63;;;;;;;2.65;93.83;101079.91;6039704;23;20041;-93
2022/11/19 02:34:11;;;;;;;21.13;13.40;;;;;;;2.67;93.74;101090.03;6040091;23;20016;-93
2022/11/19 02:37:00;;;;;;;22.25;13.13;;;;;;;2.64;93.65;101083.66;6041696;23;20020;-94
2022/11/19 02:39:39;;;;;;;25.35;15.07;;;;;;;2.56;92.94;101084.78;6041431;23;20096;-91
2022/11/19 02:42:11;;;;;;;22.48;14.13;;;;;;;2.49;92.90;101097.16;6017024;23;20549;-93
2022/11/19 02:44:59;;;;;;;22.13;13.23;;;;;;;2.49;92.83;101097.16;6041973;23;20091;-92
2022/11/19 02:47:34;;;;;;;23.52;14.48;;;;;;;2.46;92.82;101087.41;6040965;23;20132;-94
2022/11/19 02:50:07;;;;;;;24.73;13.45;;;;;;;2.48;92.89;101093.03;6041348;23;20333;-94
2022/11/19 02:52:35;;;;;;;26.73;15.40;;;;;;;2.50;92.71;101090.78;6041055;23;20103;-94
2022/11/19 02:55:02;;;;;;;24.98;14.88;;;;;;;2.50;92.75;101093.41;5992619;23;20024;-95
2022/11/19 02:57:29;;;;;;;25.30;15.15;;;;;;;2.48;93.04;101085.91;6040011;23;20031;-94
2022/11/19 03:05:48;;;;;;;25.67;15.10;;;;;;;2.44;92.31;101089.66;6313423;22;20032;-94
2022/11/19 03:08:15;;;;;;;27.42;16.58;;;;;;;2.37;91.93;101090.41;6313261;22;20717;-94
2022/11/19 03:10:53;;;;;;;27.02;16.45;;;;;;;2.37;92.26;101095.69;6314468;22;20460;-93
2022/11/19 03:19:10;;;;;;;24.63;15.15;;;;;;;2.33;92.04;101087.78;6312854;22;20012;-94
2022/11/19 03:21:50;;;;;;;26.70;15.18;;;;;;;2.30;91.76;101095.66;6313230;22;20020;-94
2022/11/19 03:24:26;;;;;;;26.88;16.30;;;;;;;2.25;91.50;101099.41;6311689;22;20027;-94
2022/11/19 03:26:58;;;;;;;28.00;16.38;;;;;;;2.29;92.01;101094.16;6311948;22;20012;-94
2022/11/19 03:29:26;;;;;;;28.08;16.35;;;;;;;2.26;91.45;101100.91;6312795;22;20066;-92
2022/11/19 03:31:59;;;;;;;27.05;15.77;;;;;;;2.26;91.50;101105.41;6284744;22;20012;-94
2022/11/19 03:34:29;;;;;;;24.23;14.05;;;;;;;2.20;90.75;101105.03;6312532;22;20070;-93
2022/11/19 03:36:59;;;;;;;27.10;16.55;;;;;;;2.16;90.73;101108.75;6313052;22;20016;-92
2022/11/19 03:39:26;;;;;;;25.10;16.20;;;;;;;2.09;90.66;101103.50;6313374;22;20047;-93
2022/11/19 03:41:55;;;;;;;26.75;16.23;;;;;;;2.07;90.81;101105.75;6285828;22;20456;-93
2022/11/19 03:44:35;;;;;;;22.80;15.38;;;;;;;2.07;90.77;101106.50;6313021;22;20035;-94
2022/11/19 03:47:07;;;;;;;23.27;14.15;;;;;;;2.00;90.62;101098.59;6311829;22;20012;-92
2022/11/19 03:49:38;;;;;;;26.45;15.20;;;;;;;1.99;90.60;101111.00;6312663;22;20943;-93
2022/11/19 03:52:09;;;;;;;;;;;;;;;1.97;91.10;101105.38;6312990;22;20047;-94
2022/11/19 03:54:37;;;;;;;23.38;15.07;;;;;;;2.00;90.82;101116.97;6313597;22;19926;-93
2022/11/19 03:57:06;;;;;;;23.33;14.98;;;;;;;1.96;90.69;101124.88;6313855;22;20023;-94
2022/11/19 03:59:33;;;;;;;24.58;15.00;;;;;;;1.96;90.51;101124.88;6313296;22;20015;-92
2022/11/19 04:02:03;;;;;;;23.40;13.65;;;;;;;1.93;90.23;101122.22;6314546;22;20363;-94
2022/11/19 04:04:36;;;;;;;23.40;13.63;;;;;;;1.89;90.10;101139.84;6314007;22;20022;-92
2022/11/19 04:07:14;;;;;;;24.40;15.27;;;;;;;1.86;90.00;101130.06;6286253;22;20067;-93
2022/11/19 04:09:41;;;;;;;24.38;15.88;;;;;;;1.84;89.89;101132.31;6312917;22;20016;-94
2022/11/19 04:12:14;;;;;;;22.55;14.70;;;;;;;1.77;89.80;101132.28;6286337;22;20799;-92
2022/11/19 04:14:40;;;;;;;22.80;14.82;;;;;;;1.74;89.83;101133.78;6313608;22;20031;-93
2022/11/19 04:17:07;;;;;;;23.20;14.95;;;;;;;1.73;89.75;101145.38;6313961;22;20012;-92
2022/11/19 04:19:33;;;;;;;21.55;14.57;;;;;;;1.71;90.03;101145.00;6313857;22;20019;-92
2022/11/19 04:22:00;;;;;;;21.13;14.32;;;;;;;1.71;89.77;101150.25;6314810;22;20528;-93
2022/11/19 04:24:26;;;;;;;22.90;14.10;;;;;;;1.70;89.74;101163.75;6314488;22;20131;-94
2022/11/19 04:26:53;;;;;;;24.60;15.00;;;;;;;1.67;89.54;101155.47;6313187;22;20011;-93
2022/11/19 04:29:19;;;;;;;25.52;14.50;;;;;;;1.67;89.70;101159.97;6313440;22;20035;-94
2022/11/19 04:31:46;;;;;;;23.90;15.93;;;;;;;1.66;89.66;101166.34;6312712;22;20019;-94
2022/11/19 04:34:13;;;;;;;20.42;13.32;;;;;;;1.64;89.56;101169.34;6313418;22;20050;-88
2022/11/19 04:36:41;;;;;;;21.60;13.70;;;;;;;1.63;88.96;101175.72;6313243;22;20019;-92
2022/11/19 04:39:09;;;;;;;26.27;15.07;;;;;;;1.61;89.22;101177.94;6313472;22;20433;-93
2022/11/19 04:41:35;;;;;;;20.98;14.35;;;;;;;1.61;88.98;101174.56;6313915;22;20026;-93
2022/11/19 04:44:02;;;;;;;23.80;15.07;;;;;;;1.61;89.05;101183.19;6313526;22;20011;-94
2022/11/19 04:46:28;;;;;;;26.88;15.07;;;;;;;1.61;89.16;101191.06;6313875;22;20036;-94
2022/11/19 04:48:55;;;;;;;23.70;15.43;;;;;;;1.59;89.35;101190.72;6314064;22;20021;-94
2022/11/19 04:51:21;;;;;;;24.00;14.65;;;;;;;1.59;89.05;101187.34;6314144;22;20031;-93
2022/11/19 04:53:48;;;;;;;23.98;14.57;;;;;;;1.59;89.42;101190.72;6313811;22;20023;-93
2022/11/19 04:56:15;;;;;;;20.98;13.68;;;;;;;1.57;89.05;101200.81;6286911;22;20468;-93
2022/11/19 04:58:42;;;;;;;22.05;13.93;;;;;;;1.54;89.25;101191.06;6312398;22;20468;-93
2022/11/19 05:01:08;;;;;;;21.67;13.13;;;;;;;1.53;88.95;101213.16;6313645;22;20016;-93
2022/11/19 05:03:35;;;;;;;21.83;14.43;;;;;;;1.48;88.84;101205.63;6312748;22;20091;-92
2022/11/19 05:06:01;;;;;;;22.98;14.50;;;;;;;1.49;89.07;101209.75;6285611;22;20020;-92
2022/11/19 05:08:28;;;;;;;24.05;14.73;;;;;;;1.47;89.23;101213.88;6311431;22;20022;-93
2022/11/19 05:10:54;;;;;;;21.25;14.00;;;;;;;1.44;89.11;101212.72;6311040;22;20891;-92
2022/11/19 05:13:21;;;;;;;23.45;14.10;;;;;;;1.43;88.95;101213.09;6284257;22;20012;-93
2022/11/19 05:15:47;;;;;;;28.75;13.65;;;;;;;1.42;88.75;101220.19;6314461;22;20070;-93
2022/11/19 05:18:14;;;;;;;25.77;15.05;;;;;;;1.40;88.72;101214.56;6313396;22;20131;-93
2022/11/19 05:20:40;;;;;;;24.80;14.82;;;;;;;1.39;89.01;101213.06;6312759;22;20056;-93
2022/11/19 05:23:07;;;;;;;24.58;14.98;;;;;;;1.40;88.77;101219.06;6313760;22;20022;-93
2022/11/19 05:25:33;;;;;;;22.15;13.75;;;;;;;1.36;88.67;101213.78;6286632;22;20012;-92
2022/11/19 05:28:00;;;;;;;25.02;15.20;;;;;;;1.33;88.57;101220.50;6312344;22;20295;-93
2022/11/19 05:30:26;;;;;;;23.77;14.05;;;;;;;1.31;88.38;101222.75;6314260;22;20023;-89
2022/11/19 05:32:53;;;;;;;26.42;14.50;;;;;;;1.29;88.41;101221.59;6314809;22;20050;-93
2022/11/19 05:35:19;;;;;;;26.25;13.30;;;;;;;1.28;88.22;101222.72;6314695;22;20445;-93
2022/11/19 05:37:49;;;;;;;22.10;13.38;;;;;;;1.25;88.21;101223.44;6316383;22;20012;-92
2022/11/19 05:40:16;;;;;;;23.58;14.45;;;;;;;1.21;88.24;101225.28;6324549;22;21091;-93
2022/11/19 05:42:43;;;;;;;26.35;14.07;;;;;;;1.23;88.34;101218.56;6325719;22;20038;-92
2022/11/19 05:45:10;;;;;;;26.80;14.40;;;;;;;1.23;88.49;101234.28;6317812;22;20085;-92
2022/11/19 05:47:37;;;;;;;21.60;14.13;;;;;;;1.24;88.06;101242.91;6317056;22;20039;-93
2022/11/19 05:50:04;;;;;;;23.95;14.68;;;;;;;1.22;88.04;101240.66;6315598;22;20018;-91
2022/11/19 05:52:31;;;;;;;21.98;12.95;;;;;;;1.22;88.11;101237.28;6287599;22;20019;-92
2022/11/19 05:54:57;;;;;;;23.27;13.85;;;;;;;1.17;88.19;101246.25;6315052;22;20004;-92
2022/11/19 05:57:24;;;;;;;24.95;15.18;;;;;;;1.15;87.84;101245.88;6287193;22;20090;-92
2022/11/19 05:59:50;;;;;;;21.77;13.85;;;;;;;1.12;88.22;101249.22;6314559;22;20078;-93
2022/11/19 06:02:17;;;;;;;21.67;13.75;;;;;;;1.12;87.98;101248.47;6315737;22;20032;-92
2022/11/19 06:04:43;;;;;;;23.85;15.25;;;;;;;1.14;88.17;101239.13;6314435;22;20508;-92
2022/11/19 06:07:10;;;;;;;24.42;14.52;;;;;;;1.14;88.01;101249.59;6315777;22;20807;-92
2022/11/19 06:09:36;;;;;;;20.77;13.73;;;;;;;1.08;88.11;101248.44;6286938;22;20023;-91
2022/11/19 06:12:03;;;;;;;22.02;14.43;;;;;;;1.07;88.09;101254.78;6317498;22;20047;-93
2022/11/19 06:14:29;;;;;;;25.02;14.05;;;;;;;1.02;87.76;101257.72;6317404;22;20035;-93
2022/11/19 06:16:58;;;;;;;21.70;13.10;;;;;;;1.00;87.80;101262.59;6316397;22;20432;-92
2022/11/19 06:19:25;;;;;;;21.60;13.65;;;;;;;0.98;87.75;101257.69;6316734;22;20039;-92
2022/11/19 06:21:52;;;;;;;20.90;12.50;;;;;;;0.96;87.60;101265.16;6315525;22;20012;-93
2022/11/19 06:24:19;;;;;;;21.70;12.85;;;;;;;0.93;87.59;101267.75;6317100;22;20097;-93
2022/11/19 06:26:46;;;;;;;19.40;12.88;;;;;;;0.94;87.67;101272.63;6316683;22;20012;-93
2022/11/19 06:29:13;;;;;;;22.23;13.68;;;;;;;0.92;87.57;101274.13;6320470;22;20016;-93
2022/11/19 06:31:40;;;;;;;21.05;13.32;;;;;;;0.87;87.12;101279.69;6320956;22;20721;-92
2022/11/19 06:34:07;;;;;;;24.77;13.98;;;;;;;0.83;87.81;101282.25;6324761;22;20008;-92
2022/11/19 06:36:33;;;;;;;20.23;13.02;;;;;;;0.84;87.53;101272.53;6323434;22;20019;-93
2022/11/19 06:39:07;;;;;;;17.13;11.15;;;;;;;0.79;87.40;101284.13;6314306;22;20020;-92
2022/11/19 06:41:34;;;;;;;18.48;12.15;;;;;;;0.74;87.66;101276.56;6313958;22;20519;-92
2022/11/19 06:44:01;;;;;;;18.52;12.02;;;;;;;0.72;87.34;101285.91;6313629;22;20020;-93
2022/11/19 06:46:27;;;;;;;20.83;12.40;;;;;;;0.66;87.35;101294.09;6313363;22;20015;-91
2022/11/19 06:48:54;;;;;;;20.40;12.93;;;;;;;0.63;87.67;101289.56;6312645;22;20444;-93
2022/11/19 06:51:20;;;;;;;20.27;12.77;;;;;;;0.65;87.49;101299.69;6313861;22;20095;-93
2022/11/19 06:53:47;;;;;;;19.35;11.77;;;;;;;0.62;87.60;101295.16;6312367;22;20604;-92
2022/11/19 06:56:13;;;;;;;21.30;13.43;;;;;;;0.60;87.69;101297.38;6313551;22;20023;-93
2022/11/19 06:58:40;;;;;;;19.35;11.90;;;;;;;0.62;87.44;101305.63;6313816;22;20779;-91
2022/11/19 07:01:06;;;;;;;22.17;13.65;;;;;;;0.60;87.55;101310.47;6313677;22;20020;-93
2022/11/19 07:03:34;;;;;;;20.20;13.10;;;;;;;0.57;87.66;101311.94;6314707;22;20016;-94
2022/11/19 07:06:03;;;;;;;16.88;10.40;;;;;;;0.55;87.01;101316.03;6295119;22;20090;-92
2022/11/19 07:08:33;;;;;;;25.50;11.98;;;;;;;0.52;87.27;101320.13;6322282;22;20065;-91
2022/11/19 07:11:00;;;;;;;21.20;12.75;;;;;;;0.50;87.16;101313.72;6287054;22;20012;-92
2022/11/19 07:13:55;;;;;;;21.45;12.68;;;;;;;0.44;87.32;101317.75;6286245;22;20023;-91
2022/11/19 07:16:13;;;;;;;22.25;13.35;;;;;;;0.43;87.49;101318.88;6287260;22;20019;-93
2022/11/19 07:18:39;;;;;;;17.52;9.68;;;;;;;0.44;87.15;101334.22;6287363;22;20349;-93
2022/11/19 07:21:06;;;;;;;23.33;13.02;;;;;;;0.40;87.47;101320.34;6314730;22;20015;-92
2022/11/19 07:23:32;;;;;;;25.70;13.85;;;;;;;0.40;87.43;101330.81;6313144;22;20015;-92
2022/11/19 07:26:02;;;;;;;21.10;13.82;;;;;;;0.38;87.33;101334.91;6292367;22;20016;-90
2022/11/19 07:28:28;;;;;;;21.30;13.07;;;;;;;0.38;87.61;101335.69;6294525;22;20023;-93
2022/11/19 07:30:54;;;;;;;18.25;12.20;;;;;;;0.41;87.71;101339.41;6315489;22;20012;-89
2022/11/19 07:33:21;;;;;;;20.42;12.02;;;;;;;0.42;87.42;101340.94;6288076;22;20020;-90
2022/11/19 07:35:47;;;;;;;20.15;12.35;;;;;;;0.40;87.36;101345.78;6286896;22;20078;-91
2022/11/19 07:38:14;;;;;;;25.15;13.82;;;;;;;0.40;87.42;101343.91;6313691;22;20062;-92
2022/11/19 07:40:40;;;;;;;21.52;13.02;;;;;;;0.42;87.41;101349.53;6313527;22;20012;-92
2022/11/19 07:43:07;;;;;;;20.90;13.05;;;;;;;0.45;87.25;101350.69;6314903;22;20092;-92
2022/11/19 07:45:36;;;;;;;23.95;12.90;;;;;;;0.40;86.83;101353.66;6313988;22;20123;-92
2022/11/19 07:48:03;;;;;;;22.23;12.38;;;;;;;0.36;86.54;101356.22;6313617;22;20476;-86
2022/11/19 07:50:29;;;;;;;21.52;12.60;;;;;;;0.38;86.82;101359.25;6285355;22;20514;-91
2022/11/19 07:52:59;;;;;;;17.95;12.52;;;;;;;0.31;86.30;101367.75;6312718;22;20019;-89
2022/11/19 07:55:25;;;;;;;21.10;12.63;;;;;;;0.29;86.29;101367.34;6313795;22;20093;-89
2022/11/19 07:57:52;;;;;;;17.27;11.38;;;;;;;0.22;85.86;101372.50;6313105;22;20020;-88
2022/11/19 08:00:19;;;;;;;22.67;13.23;;;;;;;0.20;86.31;101376.56;6315087;22;20068;-90
2022/11/19 08:02:46;;;;;;;22.98;13.38;;;;;;;0.22;86.23;101375.09;6316979;22;20015;-90
2022/11/19 08:05:12;;;;;;;19.33;12.02;;;;;;;0.25;85.85;101392.75;6319563;22;20016;-91
2022/11/19 08:07:38;;;;;;;27.52;13.55;;;;;;;0.22;85.81;101385.59;6324837;22;20019;-89
2022/11/19 08:10:06;;;;;;;18.95;12.98;;;;;;;0.21;86.14;101384.06;6325999;22;20000;-94
2022/11/19 08:12:32;;;;;;;22.85;13.90;;;;;;;0.23;86.29;101389.72;6317732;22;20020;-91
2022/11/19 08:14:59;;;;;;;21.60;13.70;;;;;;;0.23;86.25;101386.34;6314317;22;20058;-89
2022/11/19 08:20:11;;;;;;;23.25;12.90;;;;;;;0.20;86.32;101398.28;6312798;22;20090;-91
2022/11/19 08:22:39;;;;;;;23.13;13.45;;;;;;;0.15;85.99;101401.19;6311496;22;20418;-89
2022/11/19 08:25:06;;;;;;;32.72;11.90;;;;;;;0.05;85.61;101401.78;6283582;22;20050;-90
2022/11/19 08:27:33;;;;;;;21.88;12.10;;;;;;;0.02;85.74;101397.25;6314129;22;20087;-92
2022/11/19 08:30:00;;;;;;;19.65;11.68;;;;;;;0.00;85.74;101405.44;6314627;22;20082;-84
2022/11/19 08:32:26;;;;;;;21.50;10.93;;;;;;;-0.02;85.66;101401.69;6314337;22;20015;-91
2022/11/19 08:34:53;;;;;;;20.08;11.30;;;;;;;-0.04;85.32;101404.66;6287485;22;20019;-88
2022/11/19 08:37:19;;;;;;;23.48;13.10;;;;;;;-0.09;85.54;101407.56;6313908;22;20020;-89
2022/11/19 08:39:45;;;;;;;27.77;13.60;;;;;;;-0.09;85.48;101418.03;6320298;22;20467;-91
2022/11/19 08:44:57;;;;;;;21.77;12.07;;;;;;;-0.12;85.10;101412.75;6320357;22;20012;-89
2022/11/19 08:47:24;;;;;;;20.63;12.57;;;;;;;-0.13;85.32;101419.09;6326268;22;20034;-92
2022/11/19 08:49:50;;;;;;;17.15;10.60;;;;;;;-0.13;85.05;101426.94;6319852;22;20231;-87
2022/11/19 08:52:16;;;;;;;20.02;12.18;;;;;;;-0.10;84.62;101423.63;6287881;22;20026;-93
2022/11/19 08:54:43;;;;;;;22.13;11.95;;;;;;;-0.04;84.94;101430.06;6315856;22;20016;-90
2022/11/19 08:57:09;;;;;;;20.10;11.82;;;;;;;-0.01;84.64;101426.75;6314986;22;20727;-91
2022/11/19 08:59:36;;;;;;;21.88;12.77;;;;;;;-0.02;84.55;101420.78;6286114;22;20011;-91
2022/11/19 09:02:02;;;;;;;18.05;10.63;;;;;;;0.04;84.01;101420.44;6314827;22;20016;-89
2022/11/19 09:04:29;;;;;;;17.17;10.93;;;;;;;0.02;83.63;101433.13;6285989;22;20521;-90
2022/11/19 09:06:56;;;;;;;21.52;11.10;;;;;;;0.03;83.96;101439.88;6314309;22;20424;-91
2022/11/19 09:09:22;;;;;;;20.38;11.32;;;;;;;0.02;83.81;101433.88;6314607;22;20016;-91
2022/11/19 09:11:49;;;;;;;18.55;11.35;;;;;;;0.06;83.11;101426.09;6313187;22;20012;-91
2022/11/19 09:14:15;;;;;;;18.92;11.40;;;;;;;0.06;83.45;101433.94;6319307;22;20035;-91
2022/11/19 09:16:42;;;;;;;18.27;11.05;;;;;;;0.09;83.16;101441.09;6293879;22;20022;-92
2022/11/19 09:19:08;;;;;;;18.67;10.82;;;;;;;0.04;82.85;101436.16;6314236;22;20620;-90
2022/11/19 09:21:35;;;;;;;21.05;11.00;;;;;;;0.02;82.92;101441.00;6286685;22;20059;-90
2022/11/19 09:24:02;;;;;;;16.63;10.60;;;;;;;-0.01;83.04;101445.84;6314196;22;20012;-90
2022/11/19 09:26:28;;;;;;;15.23;9.85;;;;;;;-0.01;82.76;101452.94;6314651;22;20003;-91
2022/11/19 09:28:55;;;;;;;14.13;8.90;;;;;;;-0.05;82.55;101454.75;6317984;22;20022;-91
2022/11/19 09:31:21;;;;;;;17.27;10.80;;;;;;;-0.02;83.06;101457.41;6318761;22;20016;-91
2022/11/19 09:33:50;;;;;;;18.17;10.65;;;;;;;0.03;82.66;101455.59;6315770;22;20035;-92
2022/11/19 09:36:18;;;;;;;15.52;10.05;;;;;;;0.06;82.49;101460.88;6315862;22;20094;-90
2022/11/19 09:38:46;;;;;;;18.60;11.27;;;;;;;0.02;82.63;101460.06;6289209;22;20023;-89
2022/11/19 09:42:01;;;;;;;17.83;10.50;;;;;;;-0.01;82.63;101464.16;6318640;22;20019;-91
2022/11/19 09:44:56;;;;;;;17.40;10.27;;;;;;;0.00;82.75;101464.94;6314343;22;20038;-90
2022/11/19 09:47:57;;;;;;;15.77;9.88;;;;;;;0.01;82.69;101469.03;6322708;22;20019;-92
2022/11/19 09:50:27;;;;;;;16.45;9.25;;;;;;;0.02;82.65;101469.78;6292017;22;20823;-88
2022/11/19 09:52:59;;;;;;;16.92;9.82;;;;;;;0.08;81.98;101465.78;6286072;22;20047;-90
2022/11/19 09:55:31;;;;;;;13.73;9.68;;;;;;;0.14;82.41;101467.75;6316380;22;20887;-93
2022/11/19 09:57:58;;;;;;;;;;;;;;;0.17;82.84;101476.78;6315113;22;20086;-90
2022/11/19 10:00:29;;;;;;;13.23;8.50;;;;;;;0.13;81.94;101468.84;6313371;22;19977;-87
2022/11/19 10:02:59;;;;;;;16.05;9.07;;;;;;;0.11;81.71;101467.69;6313284;22;20039;-91
2022/11/19 10:06:06;;;;;;;18.67;10.32;;;;;;;0.16;82.03;101470.78;6285403;22;20016;-92
2022/11/19 10:09:31;;;;;;;11.55;7.35;;;;;;;0.24;81.95;101472.41;6315458;22;20020;-95
2022/11/19 10:12:09;;;;;;;12.55;8.27;;;;;;;0.24;81.11;101469.03;6075192;23;20145;-95
2022/11/19 10:14:44;;;;;;;17.08;9.68;;;;;;;0.25;81.16;101471.31;6051846;23;20114;-96
2022/11/19 10:17:16;;;;;;;13.80;8.57;;;;;;;0.29;80.92;101485.22;6075184;23;20238;-94
2022/11/19 10:19:59;;;;;;;14.35;8.70;;;;;;;0.33;80.80;101486.03;6077626;23;20047;-95
2022/11/19 10:22:48;;;;;;;14.60;8.90;;;;;;;0.33;80.68;101477.41;6087938;23;20015;-95
2022/11/19 10:25:27;;;;;;;12.70;8.10;;;;;;;0.37;80.38;101483.47;6076041;23;20024;-95
2022/11/19 10:28:09;;;;;;;13.00;7.70;;;;;;;0.40;80.37;101489.88;6071402;23;20038;-90
2022/11/19 10:30:39;;;;;;;16.83;8.48;;;;;;;0.41;79.79;101476.38;6071151;23;20023;-94
2022/11/19 10:33:20;;;;;;;13.27;8.98;;;;;;;0.43;80.02;101473.41;6046380;23;20081;-93
2022/11/19 10:35:51;;;;;;;13.77;8.40;;;;;;;0.47;79.64;101471.59;6069858;23;20450;-89
2022/11/19 10:38:27;;;;;;;15.18;9.65;;;;;;;0.52;79.92;101477.31;6071494;23;20039;-90
2022/11/19 10:41:00;;;;;;;14.15;9.07;;;;;;;0.56;79.74;101480.75;6073865;23;20423;-86
2022/11/19 10:43:58;;;;;;;13.43;8.38;;;;;;;0.59;79.49;101477.41;6047054;23;20022;-90
2022/11/19 10:46:27;;;;;;;12.88;8.55;;;;;;;0.63;79.05;101477.47;6106861;23;20037;-93
2022/11/19 10:48:57;;;;;;;11.90;8.35;;;;;;;0.66;78.82;101471.53;6222772;22;20020;-93
2022/11/19 10:51:28;;;;;;;14.55;8.70;;;;;;;0.69;78.32;101468.19;6249102;22;20031;-89
2022/11/19 10:53:56;;;;;;;19.92;7.88;;;;;;;0.69;77.72;101475.31;6250099;22;20024;-90
2022/11/19 10:56:38;;;;;;;13.05;8.75;;;;;;;0.67;77.68;101462.56;6249711;22;20063;-86
2022/11/19 10:59:11;;;;;;;11.70;7.90;;;;;;;0.70;77.49;101469.72;6250090;22;20016;-90
2022/11/19 11:01:43;;;;;;;11.88;7.40;;;;;;;0.73;77.17;101463.75;6251238;22;20023;-91
2022/11/19 11:04:24;;;;;;;11.32;8.15;;;;;;;0.77;77.52;101467.19;6250179;22;20057;-93
2022/11/19 11:06:52;;;;;;;13.93;7.80;;;;;;;0.81;77.25;101464.59;6254198;22;20025;-94
2022/11/19 11:09:33;;;;;;;13.57;8.80;;;;;;;0.85;77.43;101460.91;6228461;22;20874;-95
2022/11/19 11:15:06;;;;;;;11.77;8.40;;;;;;;0.90;76.50;101457.97;6247719;22;20449;-87
2022/11/19 11:17:35;;;;;;;14.60;8.30;;;;;;;0.93;76.21;101456.50;6254308;22;20017;-89
2022/11/19 11:20:14;;;;;;;12.85;8.63;;;;;;;0.98;76.56;101451.72;6254707;22;20080;-87
2022/11/19 11:22:42;;;;;;;19.75;8.05;;;;;;;1.06;76.13;101457.06;6254821;22;20021;-90
2022/11/19 11:25:20;;;;;;;15.23;8.98;;;;;;;1.08;76.13;101446.97;6251553;22;20398;-92
2022/11/19 11:28:06;;;;;;;16.15;8.20;;;;;;;1.10;75.95;101457.84;6284364;22;20055;-92
2022/11/19 11:31:08;;;;;;;13.18;7.55;;;;;;;1.11;75.93;101443.63;6236221;22;20020;-88
2022/11/19 11:33:52;;;;;;;11.98;8.25;;;;;;;1.15;75.93;101447.06;6280422;22;20074;-86
2022/11/19 11:36:24;;;;;;;11.88;8.52;;;;;;;1.21;75.30;101443.72;6281157;22;20019;-91
2022/11/19 11:38:54;;;;;;;13.25;7.95;;;;;;;1.23;75.54;101444.13;6283639;22;20051;-89
2022/11/19 11:41:41;;;;;;;12.05;8.40;;;;;;;1.25;74.87;101436.66;6282023;22;20083;-91
2022/11/19 11:44:31;;;;;;;12.63;8.45;;;;;;;1.28;74.34;101446.44;6282031;22;20099;-91
2022/11/19 11:47:22;;;;;;;17.50;9.00;;;;;;;1.29;73.90;101444.56;6283167;22;20004;-89
2022/11/19 11:49:56;;;;;;;11.75;8.18;;;;;;;1.30;74.04;101433.72;6283625;22;20437;-90
2022/11/19 11:52:35;;;;;;;11.07;7.50;;;;;;;1.31;73.84;101437.84;6285405;22;20008;-93
2022/11/19 11:55:05;;;;;;;16.98;8.73;;;;;;;1.33;73.65;101440.88;6283598;22;20013;-95
2022/11/19 11:57:34;;;;;;;13.90;7.57;;;;;;;1.34;73.19;101450.25;6283033;22;20028;-94
2022/11/19 12:00:23;;;;;;;12.13;7.38;;;;;;;1.36;72.83;101439.41;6282642;22;20012;-92